NZWN Airport Information

Runway Information
Runway 16 Length 6352 ft width 148 ft
Elevation 41 ft Threshold 210 ft Heading 183
Runway 34 Length 6352 ft Width 148 ft
Elevation 23 ft Threshold 210 ft Heading 3
Airport Frequencies
Type APP Name APP Frequency 122.3 MHZ
Type ATIS Name ATIS Frequency 126.9 MHZ
Type GND Name GND Frequency 121.9 MHZ
Type TWR Name TWR Frequency 118.8 MHZ
Airport Navaids
Type NDB Name Newlands Frequency 358 KHZ
Type NDB Name Titahi Bay Frequency 234 KHZ
Type VOR-DME Name Wellington Frequency 112300 KHZ
Type NDB Name Wellington Frequency 298 KHZ
Airport Weather Information & NOTAM
ADDS - METARS form results

(2252 UTC 18 June 2019)
Data provider http://aviationweather.gov/metar/data/
 
METAR text: NZWN 182230Z AUTO 35005KT 9999 SCT043/// 10/06 Q1028 NOSIG
Conditions at: NZWN (WELLINGTON INTL , NZ) observed 2230 UTC 18 June 2019
Temperature: 10.0°C (50°F)
Dewpoint: 6.0°C (43°F) [RH = 76%]
Pressure (altimeter): 30.35 inches Hg (1028.0 mb)
Winds: from the N (350 degrees) at 6 MPH (5 knots; 2.6 m/s)
Visibility: 6 or more miles (10+ km)
Ceiling: at least 12,000 feet AGL
Clouds: scattered clouds at 4300 feet AGL
Weather: no significant weather observed at this time

METAR text: NZWN 182200Z AUTO 01004KT 330V060 9999 OVC037/// 10/06 Q1028 NOSIG
Conditions at: NZWN (WELLINGTON INTL , NZ) observed 2200 UTC 18 June 2019
Temperature: 10.0°C (50°F)
Dewpoint: 6.0°C (43°F) [RH = 76%]
Pressure (altimeter): 30.35 inches Hg (1028.0 mb)
Winds: from the N (10 degrees) at 5 MPH (4 knots; 2.1 m/s)
Visibility: 6 or more miles (10+ km)
Ceiling: 3700 feet AGL
Clouds: overcast cloud deck at 3700 feet AGL
Weather: no significant weather observed at this time

Forecast for: NZWN (WELLINGTON INTL , NZ)
Text: TAF NZWN 181702Z 1818/1918 18015KT 9999 -SHRA FEW025 SCT045
Forecast period: 1800 to 1900 UTC 18 June 2019
Forecast type: FROM: standard forecast or significant change
Winds: from the S (180 degrees) at 17 MPH (15 knots; 7.7 m/s)
Visibility: 6 or more miles 10+ km)
Ceiling: at least 12,000 feet AGL
Clouds: few clouds at 2500 feet AGL
scattered clouds at 4500 feet AGL
Weather: -SHRA  (light rain showers)
Text: FM181900 16005KT 9999 FEW020 SCT025
Forecast period: 1900 UTC 18 June 2019 to 0600 UTC 19 June 2019
Forecast type: FROM: standard forecast or significant change
Winds: from the SSE (160 degrees) at 6 MPH (5 knots; 2.6 m/s)
Visibility: 6 or more miles 10+ km)
Ceiling: at least 12,000 feet AGL
Clouds: few clouds at 2000 feet AGL
scattered clouds at 2500 feet AGL
Weather: no significant weather forecast for this period
Text: FM190600 04010KT 9999 FEW025
Forecast period: 0600 to 1800 UTC 19 June 2019
Forecast type: FROM: standard forecast or significant change
Winds: from the NE (40 degrees) at 12 MPH (10 knots; 5.1 m/s)
Visibility: 6 or more miles 10+ km)
Ceiling: at least 12,000 feet AGL
Clouds: few clouds at 2500 feet AGL
Weather: no significant weather forecast for this period